sensor_id;sensor_type;location;lat;lon;timestamp;P1;durP1;ratioP1;P2;durP2;ratioP2
76837;SDS011;65797;47.352;8.164;2023-02-01T00:01:28;7.47;;;4.13;;
76837;SDS011;65797;47.352;8.164;2023-02-01T00:03:54;5.53;;;4.20;;
76837;SDS011;65797;47.352;8.164;2023-02-01T00:06:20;9.83;;;4.50;;
76837;SDS011;65797;47.352;8.164;2023-02-01T00:08:46;5.77;;;3.80;;
76837;SDS011;65797;47.352;8.164;2023-02-01T00:11:12;5.03;;;3.43;;
76837;SDS011;65797;47.352;8.164;2023-02-01T00:13:38;6.77;;;4.87;;
76837;SDS011;65797;47.352;8.164;2023-02-01T00:16:07;5.40;;;3.57;;
76837;SDS011;65797;47.352;8.164;2023-02-01T00:18:34;7.70;;;3.23;;
76837;SDS011;65797;47.352;8.164;2023-02-01T00:21:00;5.10;;;3.73;;
76837;SDS011;65797;47.352;8.164;2023-02-01T00:23:26;4.67;;;3.90;;
76837;SDS011;65797;47.352;8.164;2023-02-01T00:25:52;8.50;;;4.40;;
76837;SDS011;65797;47.352;8.164;2023-02-01T00:28:18;7.67;;;4.20;;
76837;SDS011;65797;47.352;8.164;2023-02-01T00:30:45;4.67;;;4.13;;
76837;SDS011;65797;47.352;8.164;2023-02-01T00:33:10;10.17;;;4.13;;
76837;SDS011;65797;47.352;8.164;2023-02-01T00:35:36;6.87;;;4.00;;
76837;SDS011;65797;47.352;8.164;2023-02-01T00:38:02;5.70;;;4.03;;
76837;SDS011;65797;47.352;8.164;2023-02-01T00:40:28;6.30;;;4.00;;
76837;SDS011;65797;47.352;8.164;2023-02-01T00:42:53;5.43;;;4.17;;
76837;SDS011;65797;47.352;8.164;2023-02-01T00:45:19;6.77;;;4.10;;
76837;SDS011;65797;47.352;8.164;2023-02-01T00:47:45;10.70;;;4.87;;
76837;SDS011;65797;47.352;8.164;2023-02-01T00:50:11;6.83;;;4.13;;
76837;SDS011;65797;47.352;8.164;2023-02-01T00:52:36;5.87;;;3.93;;
76837;SDS011;65797;47.352;8.164;2023-02-01T00:55:02;4.20;;;3.17;;
76837;SDS011;65797;47.352;8.164;2023-02-01T00:57:28;9.20;;;3.87;;
76837;SDS011;65797;47.352;8.164;2023-02-01T00:59:54;5.90;;;4.40;;
76837;SDS011;65797;47.352;8.164;2023-02-01T01:02:19;5.83;;;3.43;;
76837;SDS011;65797;47.352;8.164;2023-02-01T01:04:45;6.83;;;4.03;;
76837;SDS011;65797;47.352;8.164;2023-02-01T01:07:11;10.73;;;4.30;;
76837;SDS011;65797;47.352;8.164;2023-02-01T01:09:36;8.10;;;4.00;;
76837;SDS011;65797;47.352;8.164;2023-02-01T01:12:02;8.30;;;4.40;;
76837;SDS011;65797;47.352;8.164;2023-02-01T01:14:29;5.77;;;4.20;;
76837;SDS011;65797;47.352;8.164;2023-02-01T01:16:55;6.30;;;4.27;;
76837;SDS011;65797;47.352;8.164;2023-02-01T01:19:20;9.40;;;4.27;;
76837;SDS011;65797;47.352;8.164;2023-02-01T01:21:46;5.00;;;3.57;;
76837;SDS011;65797;47.352;8.164;2023-02-01T01:24:12;7.30;;;4.57;;
76837;SDS011;65797;47.352;8.164;2023-02-01T01:26:38;9.70;;;4.53;;
76837;SDS011;65797;47.352;8.164;2023-02-01T01:29:03;6.53;;;3.63;;
76837;SDS011;65797;47.352;8.164;2023-02-01T01:31:30;12.87;;;4.10;;
76837;SDS011;65797;47.352;8.164;2023-02-01T01:33:56;5.47;;;4.10;;
76837;SDS011;65797;47.352;8.164;2023-02-01T01:36:24;6.90;;;4.20;;
76837;SDS011;65797;47.352;8.164;2023-02-01T01:38:50;6.33;;;4.60;;
76837;SDS011;65797;47.352;8.164;2023-02-01T01:41:18;7.13;;;4.00;;
76837;SDS011;65797;47.352;8.164;2023-02-01T01:43:55;8.43;;;4.40;;
76837;SDS011;65797;47.352;8.164;2023-02-01T01:46:30;9.20;;;4.50;;
76837;SDS011;65797;47.352;8.164;2023-02-01T01:49:11;6.90;;;3.87;;
76837;SDS011;65797;47.352;8.164;2023-02-01T01:51:47;7.23;;;4.03;;
76837;SDS011;65797;47.352;8.164;2023-02-01T01:54:24;7.33;;;3.20;;
76837;SDS011;65797;47.352;8.164;2023-02-01T01:57:04;5.70;;;4.17;;
76837;SDS011;65797;47.352;8.164;2023-02-01T01:59:34;6.33;;;4.10;;
76837;SDS011;65797;47.352;8.164;2023-02-01T02:02:03;5.93;;;3.80;;
76837;SDS011;65797;47.352;8.164;2023-02-01T02:04:29;6.10;;;4.00;;
76837;SDS011;65797;47.352;8.164;2023-02-01T02:06:59;8.33;;;3.97;;
76837;SDS011;65797;47.352;8.164;2023-02-01T02:09:28;8.30;;;4.00;;
76837;SDS011;65797;47.352;8.164;2023-02-01T02:11:54;3.73;;;3.40;;
76837;SDS011;65797;47.352;8.164;2023-02-01T02:14:20;5.30;;;3.57;;
76837;SDS011;65797;47.352;8.164;2023-02-01T02:36:19;10.53;;;5.70;;
76837;SDS011;65797;47.352;8.164;2023-02-01T02:41:44;7.20;;;4.67;;
76837;SDS011;65797;47.352;8.164;2023-02-01T02:50:42;6.00;;;4.00;;
76837;SDS011;65797;47.352;8.164;2023-02-01T02:53:38;5.30;;;4.10;;
76837;SDS011;65797;47.352;8.164;2023-02-01T02:56:32;6.00;;;4.03;;
76837;SDS011;65797;47.352;8.164;2023-02-01T02:59:19;8.00;;;4.10;;
76837;SDS011;65797;47.352;8.164;2023-02-01T03:02:07;6.40;;;4.53;;
76837;SDS011;65797;47.352;8.164;2023-02-01T03:04:53;7.47;;;4.77;;
76837;SDS011;65797;47.352;8.164;2023-02-01T03:10:35;8.30;;;4.40;;
76837;SDS011;65797;47.352;8.164;2023-02-01T03:18:44;6.87;;;4.00;;
76837;SDS011;65797;47.352;8.164;2023-02-01T03:21:24;9.97;;;5.10;;
76837;SDS011;65797;47.352;8.164;2023-02-01T03:23:57;6.90;;;3.97;;
76837;SDS011;65797;47.352;8.164;2023-02-01T03:26:28;6.97;;;4.20;;
76837;SDS011;65797;47.352;8.164;2023-02-01T03:29:02;6.87;;;4.20;;
76837;SDS011;65797;47.352;8.164;2023-02-01T03:31:33;6.30;;;4.30;;
76837;SDS011;65797;47.352;8.164;2023-02-01T03:34:00;7.40;;;4.30;;
76837;SDS011;65797;47.352;8.164;2023-02-01T03:36:35;6.93;;;4.50;;
76837;SDS011;65797;47.352;8.164;2023-02-01T03:39:11;8.23;;;4.80;;
76837;SDS011;65797;47.352;8.164;2023-02-01T03:41:42;7.23;;;5.00;;
76837;SDS011;65797;47.352;8.164;2023-02-01T03:49:43;6.90;;;4.30;;
76837;SDS011;65797;47.352;8.164;2023-02-01T03:52:32;6.60;;;4.70;;
76837;SDS011;65797;47.352;8.164;2023-02-01T03:55:08;4.70;;;3.43;;
76837;SDS011;65797;47.352;8.164;2023-02-01T03:57:38;6.83;;;4.07;;
76837;SDS011;65797;47.352;8.164;2023-02-01T04:00:15;6.13;;;3.67;;
76837;SDS011;65797;47.352;8.164;2023-02-01T04:02:43;8.80;;;3.93;;
76837;SDS011;65797;47.352;8.164;2023-02-01T04:05:09;6.80;;;4.30;;
76837;SDS011;65797;47.352;8.164;2023-02-01T04:07:35;4.60;;;3.70;;
76837;SDS011;65797;47.352;8.164;2023-02-01T04:10:01;7.20;;;4.13;;
76837;SDS011;65797;47.352;8.164;2023-02-01T04:12:28;5.00;;;3.53;;
76837;SDS011;65797;47.352;8.164;2023-02-01T04:14:54;6.70;;;4.13;;
76837;SDS011;65797;47.352;8.164;2023-02-01T04:17:20;4.07;;;3.20;;
76837;SDS011;65797;47.352;8.164;2023-02-01T04:19:45;5.43;;;3.53;;
76837;SDS011;65797;47.352;8.164;2023-02-01T04:22:11;5.73;;;3.83;;
76837;SDS011;65797;47.352;8.164;2023-02-01T04:24:37;7.50;;;3.87;;
76837;SDS011;65797;47.352;8.164;2023-02-01T04:27:03;5.57;;;4.20;;
76837;SDS011;65797;47.352;8.164;2023-02-01T04:29:29;6.63;;;4.40;;
76837;SDS011;65797;47.352;8.164;2023-02-01T04:31:54;8.07;;;4.20;;
76837;SDS011;65797;47.352;8.164;2023-02-01T04:34:20;8.70;;;4.33;;
76837;SDS011;65797;47.352;8.164;2023-02-01T04:36:47;6.83;;;4.30;;
76837;SDS011;65797;47.352;8.164;2023-02-01T04:39:13;6.80;;;4.17;;
76837;SDS011;65797;47.352;8.164;2023-02-01T04:41:39;4.90;;;4.17;;
76837;SDS011;65797;47.352;8.164;2023-02-01T04:44:06;10.60;;;3.90;;
76837;SDS011;65797;47.352;8.164;2023-02-01T04:46:31;7.00;;;4.03;;
76837;SDS011;65797;47.352;8.164;2023-02-01T04:48:57;6.17;;;3.97;;
76837;SDS011;65797;47.352;8.164;2023-02-01T04:51:23;7.30;;;4.10;;
76837;SDS011;65797;47.352;8.164;2023-02-01T04:53:48;4.83;;;3.77;;
76837;SDS011;65797;47.352;8.164;2023-02-01T04:56:14;8.27;;;4.03;;
76837;SDS011;65797;47.352;8.164;2023-02-01T04:58:39;7.23;;;3.97;;
76837;SDS011;65797;47.352;8.164;2023-02-01T05:01:06;7.00;;;3.87;;
76837;SDS011;65797;47.352;8.164;2023-02-01T05:03:32;9.20;;;4.40;;
76837;SDS011;65797;47.352;8.164;2023-02-01T05:05:59;6.30;;;4.37;;
76837;SDS011;65797;47.352;8.164;2023-02-01T05:08:25;6.50;;;4.37;;
76837;SDS011;65797;47.352;8.164;2023-02-01T05:10:52;7.67;;;4.07;;
76837;SDS011;65797;47.352;8.164;2023-02-01T05:13:18;5.47;;;4.30;;
76837;SDS011;65797;47.352;8.164;2023-02-01T05:16:02;4.40;;;3.97;;
76837;SDS011;65797;47.352;8.164;2023-02-01T05:18:28;10.43;;;5.27;;
76837;SDS011;65797;47.352;8.164;2023-02-01T05:20:54;9.57;;;3.83;;
76837;SDS011;65797;47.352;8.164;2023-02-01T05:23:19;6.80;;;3.53;;
76837;SDS011;65797;47.352;8.164;2023-02-01T05:25:45;7.63;;;4.73;;
76837;SDS011;65797;47.352;8.164;2023-02-01T05:28:11;5.27;;;4.00;;
76837;SDS011;65797;47.352;8.164;2023-02-01T05:30:37;5.50;;;3.93;;
76837;SDS011;65797;47.352;8.164;2023-02-01T05:33:03;10.60;;;4.90;;
76837;SDS011;65797;47.352;8.164;2023-02-01T05:35:29;8.17;;;3.30;;
76837;SDS011;65797;47.352;8.164;2023-02-01T05:37:55;6.50;;;4.37;;
76837;SDS011;65797;47.352;8.164;2023-02-01T05:40:20;8.40;;;3.67;;
76837;SDS011;65797;47.352;8.164;2023-02-01T05:42:46;13.93;;;5.17;;
76837;SDS011;65797;47.352;8.164;2023-02-01T05:45:13;6.00;;;3.93;;
76837;SDS011;65797;47.352;8.164;2023-02-01T05:47:38;4.70;;;3.63;;
76837;SDS011;65797;47.352;8.164;2023-02-01T05:50:04;8.80;;;4.70;;
76837;SDS011;65797;47.352;8.164;2023-02-01T05:52:31;5.20;;;3.73;;
76837;SDS011;65797;47.352;8.164;2023-02-01T05:54:57;8.20;;;3.93;;
76837;SDS011;65797;47.352;8.164;2023-02-01T05:57:23;8.03;;;4.43;;
76837;SDS011;65797;47.352;8.164;2023-02-01T05:59:48;6.27;;;3.60;;
76837;SDS011;65797;47.352;8.164;2023-02-01T06:02:15;7.50;;;4.30;;
76837;SDS011;65797;47.352;8.164;2023-02-01T06:04:41;7.07;;;4.53;;
76837;SDS011;65797;47.352;8.164;2023-02-01T06:07:07;9.67;;;6.10;;
76837;SDS011;65797;47.352;8.164;2023-02-01T06:09:35;10.53;;;5.80;;
76837;SDS011;65797;47.352;8.164;2023-02-01T06:12:01;8.90;;;5.33;;
76837;SDS011;65797;47.352;8.164;2023-02-01T06:14:27;9.50;;;5.50;;
76837;SDS011;65797;47.352;8.164;2023-02-01T06:16:56;16.87;;;7.00;;
76837;SDS011;65797;47.352;8.164;2023-02-01T06:19:22;15.40;;;8.67;;
76837;SDS011;65797;47.352;8.164;2023-02-01T06:21:48;16.57;;;8.30;;
76837;SDS011;65797;47.352;8.164;2023-02-01T06:24:14;16.23;;;8.87;;
76837;SDS011;65797;47.352;8.164;2023-02-01T06:26:40;18.97;;;8.53;;
76837;SDS011;65797;47.352;8.164;2023-02-01T06:29:06;14.60;;;8.67;;
76837;SDS011;65797;47.352;8.164;2023-02-01T06:31:32;17.73;;;10.20;;
76837;SDS011;65797;47.352;8.164;2023-02-01T06:33:58;21.50;;;9.57;;
76837;SDS011;65797;47.352;8.164;2023-02-01T06:36:24;21.33;;;10.40;;
76837;SDS011;65797;47.352;8.164;2023-02-01T06:38:49;19.33;;;10.80;;
76837;SDS011;65797;47.352;8.164;2023-02-01T06:41:15;19.40;;;9.80;;
76837;SDS011;65797;47.352;8.164;2023-02-01T07:26:42;22.60;;;8.77;;
76837;SDS011;65797;47.352;8.164;2023-02-01T09:12:03;6.73;;;3.53;;
76837;SDS011;65797;47.352;8.164;2023-02-01T09:17:04;5.23;;;4.13;;
76837;SDS011;65797;47.352;8.164;2023-02-01T09:40:52;6.70;;;4.13;;
76837;SDS011;65797;47.352;8.164;2023-02-01T09:43:21;6.40;;;4.20;;
76837;SDS011;65797;47.352;8.164;2023-02-01T09:45:54;7.70;;;4.43;;
76837;SDS011;65797;47.352;8.164;2023-02-01T09:48:36;5.60;;;3.70;;
76837;SDS011;65797;47.352;8.164;2023-02-01T09:51:11;5.10;;;4.37;;
76837;SDS011;65797;47.352;8.164;2023-02-01T09:53:44;7.80;;;4.93;;
76837;SDS011;65797;47.352;8.164;2023-02-01T09:56:23;7.60;;;4.20;;
76837;SDS011;65797;47.352;8.164;2023-02-01T09:59:03;4.97;;;3.50;;
76837;SDS011;65797;47.352;8.164;2023-02-01T10:01:29;7.80;;;4.33;;
76837;SDS011;65797;47.352;8.164;2023-02-01T10:03:58;11.50;;;4.70;;
76837;SDS011;65797;47.352;8.164;2023-02-01T10:28:47;5.97;;;4.20;;
76837;SDS011;65797;47.352;8.164;2023-02-01T10:31:26;6.83;;;4.30;;
76837;SDS011;65797;47.352;8.164;2023-02-01T10:33:56;11.37;;;4.70;;
76837;SDS011;65797;47.352;8.164;2023-02-01T10:36:57;6.23;;;3.87;;
76837;SDS011;65797;47.352;8.164;2023-02-01T10:39:18;9.60;;;4.50;;
76837;SDS011;65797;47.352;8.164;2023-02-01T10:41:44;12.97;;;5.50;;
76837;SDS011;65797;47.352;8.164;2023-02-01T10:44:14;11.43;;;5.47;;
76837;SDS011;65797;47.352;8.164;2023-02-01T10:46:41;9.23;;;5.43;;
76837;SDS011;65797;47.352;8.164;2023-02-01T10:49:16;7.50;;;4.70;;
76837;SDS011;65797;47.352;8.164;2023-02-01T10:51:47;9.43;;;4.40;;
76837;SDS011;65797;47.352;8.164;2023-02-01T10:54:38;7.63;;;4.80;;
76837;SDS011;65797;47.352;8.164;2023-02-01T10:57:37;6.37;;;4.27;;
76837;SDS011;65797;47.352;8.164;2023-02-01T10:59:56;6.27;;;4.30;;
76837;SDS011;65797;47.352;8.164;2023-02-01T11:02:30;5.77;;;3.70;;
76837;SDS011;65797;47.352;8.164;2023-02-01T11:04:59;12.63;;;4.53;;
76837;SDS011;65797;47.352;8.164;2023-02-01T11:07:29;8.40;;;3.90;;
76837;SDS011;65797;47.352;8.164;2023-02-01T11:09:55;6.93;;;4.30;;
76837;SDS011;65797;47.352;8.164;2023-02-01T11:12:25;11.10;;;4.30;;
76837;SDS011;65797;47.352;8.164;2023-02-01T11:15:15;8.20;;;4.47;;
76837;SDS011;65797;47.352;8.164;2023-02-01T11:17:46;7.03;;;4.37;;
76837;SDS011;65797;47.352;8.164;2023-02-01T11:22:55;6.60;;;4.20;;
76837;SDS011;65797;47.352;8.164;2023-02-01T11:25:21;4.33;;;3.40;;
76837;SDS011;65797;47.352;8.164;2023-02-01T11:27:49;8.60;;;4.60;;
76837;SDS011;65797;47.352;8.164;2023-02-01T11:30:17;5.97;;;3.67;;
76837;SDS011;65797;47.352;8.164;2023-02-01T11:32:49;6.40;;;3.97;;
76837;SDS011;65797;47.352;8.164;2023-02-01T11:35:17;6.33;;;4.00;;
76837;SDS011;65797;47.352;8.164;2023-02-01T11:37:44;4.60;;;3.20;;
76837;SDS011;65797;47.352;8.164;2023-02-01T11:45:56;3.30;;;2.90;;
76837;SDS011;65797;47.352;8.164;2023-02-01T11:48:25;6.83;;;3.13;;
76837;SDS011;65797;47.352;8.164;2023-02-01T11:58:57;5.27;;;3.57;;
76837;SDS011;65797;47.352;8.164;2023-02-01T12:01:32;4.13;;;3.17;;
76837;SDS011;65797;47.352;8.164;2023-02-01T12:04:30;2.70;;;2.50;;
76837;SDS011;65797;47.352;8.164;2023-02-01T12:07:43;6.80;;;3.30;;
76837;SDS011;65797;47.352;8.164;2023-02-01T12:10:29;4.00;;;3.10;;
76837;SDS011;65797;47.352;8.164;2023-02-01T12:18:32;5.23;;;2.73;;
76837;SDS011;65797;47.352;8.164;2023-02-01T12:26:06;5.03;;;3.87;;
76837;SDS011;65797;47.352;8.164;2023-02-01T12:37:25;5.27;;;2.00;;
76837;SDS011;65797;47.352;8.164;2023-02-01T12:43:09;2.70;;;1.87;;
76837;SDS011;65797;47.352;8.164;2023-02-01T12:46:27;3.70;;;2.20;;
76837;SDS011;65797;47.352;8.164;2023-02-01T12:49:14;2.90;;;1.77;;
76837;SDS011;65797;47.352;8.164;2023-02-01T12:52:07;2.73;;;2.30;;
76837;SDS011;65797;47.352;8.164;2023-02-01T12:54:53;2.10;;;1.90;;
76837;SDS011;65797;47.352;8.164;2023-02-01T12:57:40;2.70;;;2.07;;
76837;SDS011;65797;47.352;8.164;2023-02-01T13:03:03;3.67;;;2.20;;
76837;SDS011;65797;47.352;8.164;2023-02-01T13:08:12;5.07;;;2.40;;
76837;SDS011;65797;47.352;8.164;2023-02-01T13:15:58;2.20;;;2.00;;
76837;SDS011;65797;47.352;8.164;2023-02-01T13:18:32;2.80;;;1.63;;
76837;SDS011;65797;47.352;8.164;2023-02-01T13:42:51;2.70;;;1.60;;
76837;SDS011;65797;47.352;8.164;2023-02-01T13:45:23;3.43;;;1.40;;
76837;SDS011;65797;47.352;8.164;2023-02-01T13:47:55;2.30;;;1.10;;
76837;SDS011;65797;47.352;8.164;2023-02-01T13:50:27;5.70;;;1.60;;
76837;SDS011;65797;47.352;8.164;2023-02-01T13:55:40;3.97;;;1.50;;
76837;SDS011;65797;47.352;8.164;2023-02-01T14:00:44;1.80;;;1.30;;
76837;SDS011;65797;47.352;8.164;2023-02-01T14:03:11;2.10;;;1.73;;
76837;SDS011;65797;47.352;8.164;2023-02-01T14:08:13;3.70;;;1.30;;
76837;SDS011;65797;47.352;8.164;2023-02-01T15:24:33;3.40;;;1.50;;
76837;SDS011;65797;47.352;8.164;2023-02-01T15:27:03;5.40;;;1.67;;
76837;SDS011;65797;47.352;8.164;2023-02-01T15:29:30;4.23;;;1.77;;
76837;SDS011;65797;47.352;8.164;2023-02-01T15:37:11;2.80;;;1.40;;
76837;SDS011;65797;47.352;8.164;2023-02-01T15:42:16;6.37;;;1.80;;
76837;SDS011;65797;47.352;8.164;2023-02-01T15:44:44;5.20;;;1.60;;
76837;SDS011;65797;47.352;8.164;2023-02-01T15:49:45;8.33;;;2.90;;
76837;SDS011;65797;47.352;8.164;2023-02-01T16:25:53;2.27;;;1.63;;
76837;SDS011;65797;47.352;8.164;2023-02-01T16:28:19;6.53;;;1.60;;
76837;SDS011;65797;47.352;8.164;2023-02-01T16:30:45;4.47;;;1.57;;
76837;SDS011;65797;47.352;8.164;2023-02-01T16:33:14;3.90;;;1.63;;
76837;SDS011;65797;47.352;8.164;2023-02-01T16:35:44;2.30;;;1.40;;
76837;SDS011;65797;47.352;8.164;2023-02-01T16:38:15;1.87;;;1.27;;
76837;SDS011;65797;47.352;8.164;2023-02-01T16:40:44;9.53;;;3.10;;
76837;SDS011;65797;47.352;8.164;2023-02-01T16:43:12;5.47;;;2.00;;
76837;SDS011;65797;47.352;8.164;2023-02-01T16:45:40;10.60;;;1.70;;
76837;SDS011;65797;47.352;8.164;2023-02-01T16:48:07;6.97;;;1.70;;
76837;SDS011;65797;47.352;8.164;2023-02-01T16:50:33;6.60;;;1.87;;
76837;SDS011;65797;47.352;8.164;2023-02-01T16:52:58;4.33;;;1.30;;
76837;SDS011;65797;47.352;8.164;2023-02-01T16:55:26;3.43;;;1.77;;
76837;SDS011;65797;47.352;8.164;2023-02-01T16:57:52;4.23;;;1.60;;
76837;SDS011;65797;47.352;8.164;2023-02-01T17:00:18;3.17;;;1.77;;
76837;SDS011;65797;47.352;8.164;2023-02-01T17:02:45;6.70;;;1.77;;
76837;SDS011;65797;47.352;8.164;2023-02-01T17:05:11;1.93;;;1.60;;
76837;SDS011;65797;47.352;8.164;2023-02-01T17:07:37;3.67;;;1.47;;
76837;SDS011;65797;47.352;8.164;2023-02-01T17:10:04;7.90;;;1.60;;
76837;SDS011;65797;47.352;8.164;2023-02-01T17:12:31;11.37;;;2.57;;
76837;SDS011;65797;47.352;8.164;2023-02-01T17:14:58;6.80;;;1.20;;
76837;SDS011;65797;47.352;8.164;2023-02-01T17:17:32;8.07;;;2.77;;
76837;SDS011;65797;47.352;8.164;2023-02-01T17:20:01;4.03;;;1.50;;
76837;SDS011;65797;47.352;8.164;2023-02-01T17:22:28;4.07;;;1.50;;
76837;SDS011;65797;47.352;8.164;2023-02-01T17:24:53;7.00;;;1.50;;
76837;SDS011;65797;47.352;8.164;2023-02-01T17:27:19;2.50;;;1.50;;
76837;SDS011;65797;47.352;8.164;2023-02-01T17:29:45;5.63;;;1.77;;
76837;SDS011;65797;47.352;8.164;2023-02-01T17:32:16;1.63;;;1.50;;
76837;SDS011;65797;47.352;8.164;2023-02-01T17:34:45;2.77;;;1.40;;
76837;SDS011;65797;47.352;8.164;2023-02-01T17:37:15;2.73;;;1.33;;
76837;SDS011;65797;47.352;8.164;2023-02-01T17:39:51;5.00;;;1.60;;
76837;SDS011;65797;47.352;8.164;2023-02-01T17:42:19;3.83;;;1.60;;
76837;SDS011;65797;47.352;8.164;2023-02-01T17:44:45;5.73;;;1.97;;
76837;SDS011;65797;47.352;8.164;2023-02-01T17:47:11;4.90;;;1.67;;
76837;SDS011;65797;47.352;8.164;2023-02-01T17:49:37;6.20;;;1.60;;
76837;SDS011;65797;47.352;8.164;2023-02-01T17:52:03;10.00;;;1.63;;
76837;SDS011;65797;47.352;8.164;2023-02-01T17:54:30;7.40;;;1.70;;
76837;SDS011;65797;47.352;8.164;2023-02-01T17:56:56;3.93;;;2.00;;
76837;SDS011;65797;47.352;8.164;2023-02-01T17:59:24;4.87;;;1.70;;
76837;SDS011;65797;47.352;8.164;2023-02-01T18:01:51;7.90;;;3.40;;
76837;SDS011;65797;47.352;8.164;2023-02-01T18:04:18;2.30;;;1.80;;
76837;SDS011;65797;47.352;8.164;2023-02-01T18:06:43;8.87;;;1.63;;
76837;SDS011;65797;47.352;8.164;2023-02-01T18:09:09;8.00;;;1.60;;
76837;SDS011;65797;47.352;8.164;2023-02-01T18:11:35;4.27;;;1.80;;
76837;SDS011;65797;47.352;8.164;2023-02-01T18:14:01;4.30;;;2.10;;
76837;SDS011;65797;47.352;8.164;2023-02-01T18:16:28;5.07;;;1.73;;
76837;SDS011;65797;47.352;8.164;2023-02-01T18:18:55;6.43;;;2.30;;
76837;SDS011;65797;47.352;8.164;2023-02-01T18:21:33;7.83;;;1.73;;
76837;SDS011;65797;47.352;8.164;2023-02-01T18:24:01;3.33;;;1.50;;
76837;SDS011;65797;47.352;8.164;2023-02-01T18:26:27;4.93;;;1.60;;
76837;SDS011;65797;47.352;8.164;2023-02-01T18:28:53;5.27;;;2.13;;
76837;SDS011;65797;47.352;8.164;2023-02-01T18:31:20;5.20;;;2.07;;
76837;SDS011;65797;47.352;8.164;2023-02-01T18:33:51;7.83;;;1.80;;
76837;SDS011;65797;47.352;8.164;2023-02-01T18:36:18;5.17;;;1.90;;
76837;SDS011;65797;47.352;8.164;2023-02-01T18:38:44;4.77;;;1.93;;
76837;SDS011;65797;47.352;8.164;2023-02-01T18:41:11;4.10;;;1.50;;
76837;SDS011;65797;47.352;8.164;2023-02-01T18:43:39;4.53;;;1.70;;
76837;SDS011;65797;47.352;8.164;2023-02-01T18:46:05;7.77;;;1.63;;
76837;SDS011;65797;47.352;8.164;2023-02-01T18:48:31;5.43;;;1.97;;
76837;SDS011;65797;47.352;8.164;2023-02-01T18:50:57;6.40;;;1.77;;
76837;SDS011;65797;47.352;8.164;2023-02-01T18:53:22;7.40;;;1.90;;
76837;SDS011;65797;47.352;8.164;2023-02-01T18:55:51;4.00;;;1.93;;
76837;SDS011;65797;47.352;8.164;2023-02-01T18:58:18;5.10;;;2.20;;
76837;SDS011;65797;47.352;8.164;2023-02-01T19:00:44;4.87;;;1.57;;
76837;SDS011;65797;47.352;8.164;2023-02-01T19:03:11;4.63;;;1.60;;
76837;SDS011;65797;47.352;8.164;2023-02-01T19:05:37;3.50;;;1.47;;
76837;SDS011;65797;47.352;8.164;2023-02-01T19:08:03;12.93;;;2.60;;
76837;SDS011;65797;47.352;8.164;2023-02-01T19:10:29;2.70;;;1.60;;
76837;SDS011;65797;47.352;8.164;2023-02-01T19:12:55;4.23;;;1.47;;
76837;SDS011;65797;47.352;8.164;2023-02-01T19:15:22;2.80;;;1.30;;
76837;SDS011;65797;47.352;8.164;2023-02-01T19:17:49;7.97;;;2.27;;
76837;SDS011;65797;47.352;8.164;2023-02-01T19:20:17;5.10;;;1.70;;
76837;SDS011;65797;47.352;8.164;2023-02-01T19:22:44;6.97;;;2.10;;
76837;SDS011;65797;47.352;8.164;2023-02-01T19:25:15;11.73;;;1.60;;
76837;SDS011;65797;47.352;8.164;2023-02-01T19:27:43;9.80;;;1.60;;
76837;SDS011;65797;47.352;8.164;2023-02-01T19:30:09;4.10;;;1.43;;
76837;SDS011;65797;47.352;8.164;2023-02-01T19:32:36;8.97;;;2.00;;
76837;SDS011;65797;47.352;8.164;2023-02-01T19:35:03;4.37;;;1.80;;
76837;SDS011;65797;47.352;8.164;2023-02-01T19:37:29;12.97;;;2.70;;
76837;SDS011;65797;47.352;8.164;2023-02-01T19:39:54;3.63;;;1.77;;
76837;SDS011;65797;47.352;8.164;2023-02-01T19:42:23;4.47;;;2.20;;
76837;SDS011;65797;47.352;8.164;2023-02-01T19:44:49;8.77;;;2.50;;
76837;SDS011;65797;47.352;8.164;2023-02-01T19:47:15;13.10;;;2.40;;
76837;SDS011;65797;47.352;8.164;2023-02-01T19:49:41;7.07;;;2.47;;
76837;SDS011;65797;47.352;8.164;2023-02-01T19:52:06;6.37;;;1.67;;
76837;SDS011;65797;47.352;8.164;2023-02-01T19:54:32;4.93;;;1.40;;
76837;SDS011;65797;47.352;8.164;2023-02-01T19:56:57;6.07;;;1.97;;
76837;SDS011;65797;47.352;8.164;2023-02-01T19:59:23;5.70;;;1.90;;
76837;SDS011;65797;47.352;8.164;2023-02-01T20:01:50;7.17;;;1.97;;
76837;SDS011;65797;47.352;8.164;2023-02-01T20:04:16;3.03;;;1.60;;
76837;SDS011;65797;47.352;8.164;2023-02-01T20:06:44;4.10;;;1.50;;
76837;SDS011;65797;47.352;8.164;2023-02-01T20:09:18;6.43;;;2.10;;
76837;SDS011;65797;47.352;8.164;2023-02-01T20:11:45;4.77;;;1.50;;
76837;SDS011;65797;47.352;8.164;2023-02-01T20:14:12;10.47;;;2.07;;
76837;SDS011;65797;47.352;8.164;2023-02-01T20:16:38;5.10;;;3.57;;
76837;SDS011;65797;47.352;8.164;2023-02-01T20:19:05;8.03;;;1.87;;
76837;SDS011;65797;47.352;8.164;2023-02-01T20:21:31;16.53;;;1.60;;
76837;SDS011;65797;47.352;8.164;2023-02-01T20:23:58;11.23;;;1.70;;
76837;SDS011;65797;47.352;8.164;2023-02-01T20:26:23;3.43;;;1.50;;
76837;SDS011;65797;47.352;8.164;2023-02-01T20:28:50;2.60;;;1.20;;
76837;SDS011;65797;47.352;8.164;2023-02-01T20:31:16;5.30;;;1.63;;
76837;SDS011;65797;47.352;8.164;2023-02-01T20:33:42;8.70;;;1.93;;
76837;SDS011;65797;47.352;8.164;2023-02-01T20:36:08;6.30;;;2.00;;
76837;SDS011;65797;47.352;8.164;2023-02-01T20:38:34;8.03;;;1.47;;
76837;SDS011;65797;47.352;8.164;2023-02-01T20:41:03;6.93;;;2.00;;
76837;SDS011;65797;47.352;8.164;2023-02-01T20:43:31;6.70;;;1.80;;
76837;SDS011;65797;47.352;8.164;2023-02-01T20:45:58;6.83;;;1.70;;
76837;SDS011;65797;47.352;8.164;2023-02-01T20:48:24;7.40;;;2.10;;
76837;SDS011;65797;47.352;8.164;2023-02-01T20:50:54;9.30;;;2.10;;
76837;SDS011;65797;47.352;8.164;2023-02-01T20:53:21;7.40;;;2.67;;
76837;SDS011;65797;47.352;8.164;2023-02-01T20:55:54;7.03;;;2.03;;
76837;SDS011;65797;47.352;8.164;2023-02-01T20:58:21;7.03;;;2.10;;
76837;SDS011;65797;47.352;8.164;2023-02-01T21:00:47;7.20;;;1.40;;
76837;SDS011;65797;47.352;8.164;2023-02-01T21:03:13;2.90;;;1.47;;
76837;SDS011;65797;47.352;8.164;2023-02-01T21:05:44;7.40;;;1.47;;
76837;SDS011;65797;47.352;8.164;2023-02-01T21:08:12;9.43;;;1.73;;
76837;SDS011;65797;47.352;8.164;2023-02-01T21:10:38;5.47;;;1.97;;
76837;SDS011;65797;47.352;8.164;2023-02-01T21:13:04;6.93;;;1.63;;
76837;SDS011;65797;47.352;8.164;2023-02-01T21:15:31;2.87;;;1.60;;
76837;SDS011;65797;47.352;8.164;2023-02-01T21:18:02;5.00;;;1.80;;
76837;SDS011;65797;47.352;8.164;2023-02-01T21:20:29;5.47;;;1.70;;
76837;SDS011;65797;47.352;8.164;2023-02-01T21:22:55;8.77;;;2.10;;
76837;SDS011;65797;47.352;8.164;2023-02-01T21:25:21;7.83;;;1.80;;
76837;SDS011;65797;47.352;8.164;2023-02-01T21:27:46;4.83;;;1.83;;
76837;SDS011;65797;47.352;8.164;2023-02-01T21:30:12;4.80;;;1.90;;
76837;SDS011;65797;47.352;8.164;2023-02-01T21:32:38;11.07;;;1.73;;
76837;SDS011;65797;47.352;8.164;2023-02-01T21:35:04;6.67;;;1.63;;
76837;SDS011;65797;47.352;8.164;2023-02-01T21:37:31;3.37;;;1.67;;
76837;SDS011;65797;47.352;8.164;2023-02-01T21:39:58;6.73;;;1.67;;
76837;SDS011;65797;47.352;8.164;2023-02-01T21:42:24;3.40;;;1.60;;
76837;SDS011;65797;47.352;8.164;2023-02-01T21:44:50;4.03;;;1.57;;
76837;SDS011;65797;47.352;8.164;2023-02-01T21:47:18;6.23;;;1.90;;
76837;SDS011;65797;47.352;8.164;2023-02-01T21:49:45;3.50;;;1.83;;
76837;SDS011;65797;47.352;8.164;2023-02-01T21:52:12;4.90;;;1.60;;
76837;SDS011;65797;47.352;8.164;2023-02-01T21:54:38;9.40;;;1.60;;
76837;SDS011;65797;47.352;8.164;2023-02-01T21:57:05;10.23;;;1.70;;
76837;SDS011;65797;47.352;8.164;2023-02-01T21:59:36;6.80;;;2.00;;
76837;SDS011;65797;47.352;8.164;2023-02-01T22:02:03;10.43;;;1.80;;
76837;SDS011;65797;47.352;8.164;2023-02-01T22:04:30;5.60;;;1.93;;
76837;SDS011;65797;47.352;8.164;2023-02-01T22:06:56;3.80;;;1.50;;
76837;SDS011;65797;47.352;8.164;2023-02-01T22:09:23;7.37;;;2.20;;